Time;durP1;ratioP1;P1;durP2;ratioP2;P2;SDS_P1;SDS_P2;PMS_P1;PMS_P2;Temp;Humidity;BMP_temperature;BMP_pressure;BME280_temperature;BME280_humidity;BME280_pressure;Samples;Min_cycle;Max_cycle;Signal;HPM_P1;HPM_P2
2022/12/10 00:01:24;;;;;;;10.50;9.43;;;;;;;1.10;100.00;97503.75;4201335;28;20202;-48
2022/12/10 00:03:26;;;;;;;11.10;10.00;;;;;;;1.21;100.00;97507.63;4217264;27;20783;-49
2022/12/10 00:05:28;;;;;;;8.40;7.65;;;;;;;1.19;100.00;97513.22;4216669;28;20793;-49
2022/12/10 00:07:30;;;;;;;9.70;8.45;;;;;;;1.09;100.00;97510.16;4203727;28;20317;-50
2022/12/10 00:09:32;;;;;;;12.45;10.55;;;;;;;1.10;100.00;97514.53;4219691;27;20815;-50
2022/12/10 00:11:34;;;;;;;12.80;11.75;;;;;;;1.10;100.00;97503.75;4217100;27;20638;-49
2022/12/10 00:13:37;;;;;;;12.82;10.40;;;;;;;1.11;100.00;97510.78;4200680;28;20639;-49
2022/12/10 00:15:39;;;;;;;11.13;10.02;;;;;;;1.07;100.00;97498.78;4204061;28;20215;-49
2022/12/10 00:17:40;;;;;;;11.73;10.63;;;;;;;1.17;100.00;97504.53;4199488;28;20227;-50
2022/12/10 00:19:42;;;;;;;11.25;10.15;;;;;;;1.11;100.00;97508.09;4202851;28;20694;-48
2022/12/10 00:21:45;;;;;;;12.52;11.07;;;;;;;1.15;100.00;97517.38;4205684;28;20298;-50
2022/12/10 00:23:47;;;;;;;13.18;11.80;;;;;;;1.15;100.00;97511.97;4200501;28;20249;-49
2022/12/10 00:25:49;;;;;;;11.52;10.32;;;;;;;1.05;100.00;97511.63;4216225;27;20320;-48
2022/12/10 00:27:51;;;;;;;10.63;9.38;;;;;;;1.12;100.00;97517.81;4217836;27;20629;-49
2022/12/10 00:29:53;;;;;;;9.88;8.88;;;;;;;1.06;100.00;97517.84;4215140;28;20309;-50
2022/12/10 00:31:54;;;;;;;10.95;9.93;;;;;;;1.03;100.00;97510.19;4204508;28;21163;-50
2022/12/10 00:33:59;;;;;;;10.07;8.43;;;;;;;1.04;100.00;97510.00;4199749;28;20606;-48
2022/12/10 00:36:05;;;;;;;10.43;9.38;;;;;;;1.04;100.00;97514.53;4202330;28;20246;-48
2022/12/10 00:38:07;;;;;;;10.07;9.10;;;;;;;1.13;100.00;97513.22;4221662;27;20210;-49
2022/12/10 00:40:12;;;;;;;8.57;7.82;;;;;;;1.10;100.00;97513.69;4191576;28;20204;-49
2022/12/10 00:42:14;;;;;;;11.25;10.25;;;;;;;0.96;100.00;97512.94;4204823;28;20256;-49
2022/12/10 00:44:16;;;;;;;16.55;8.15;;;;;;;0.92;100.00;97511.69;4217083;27;20253;-49
2022/12/10 00:46:19;;;;;;;9.05;8.10;;;;;;;0.88;100.00;97507.78;4200903;28;20322;-49
2022/12/10 00:48:21;;;;;;;8.23;7.53;;;;;;;1.03;100.00;97502.97;4199304;28;20343;-50
2022/12/10 00:50:23;;;;;;;8.20;7.55;;;;;;;0.96;100.00;97506.72;4187952;28;20231;-50
2022/12/10 00:52:25;;;;;;;10.20;8.68;;;;;;;0.99;100.00;97499.03;4207220;28;20206;-49
2022/12/10 00:54:26;;;;;;;7.72;7.03;;;;;;;0.96;100.00;97501.31;4218582;27;20247;-50
2022/12/10 00:56:32;;;;;;;9.40;7.22;;;;;;;1.02;100.00;97497.78;4200142;28;20660;-49
2022/12/10 00:58:37;;;;;;;9.35;7.53;;;;;;;0.99;100.00;97501.72;4202886;28;20293;-49
2022/12/10 01:00:39;;;;;;;8.32;7.60;;;;;;;0.97;100.00;97498.44;4200586;28;20704;-49
2022/12/10 01:02:41;;;;;;;9.82;8.75;;;;;;;0.98;100.00;97505.47;4216655;27;20222;-48
2022/12/10 01:04:43;;;;;;;10.10;9.10;;;;;;;0.96;100.00;97502.16;4185872;28;20246;-47
2022/12/10 01:06:50;;;;;;;9.90;8.90;;;;;;;0.99;100.00;97507.09;4201094;28;20270;-49
2022/12/10 01:08:53;;;;;;;9.15;8.25;;;;;;;0.92;100.00;97508.16;4200453;28;20262;-49
2022/12/10 01:10:55;;;;;;;10.25;9.07;;;;;;;0.91;100.00;97510.06;4188705;28;20243;-49
2022/12/10 01:12:57;;;;;;;9.27;8.30;;;;;;;0.92;100.00;97511.69;4200136;28;20217;-50
2022/12/10 01:14:59;;;;;;;8.73;7.82;;;;;;;0.92;100.00;97517.09;4200935;28;20630;-50
2022/12/10 01:17:03;;;;;;;9.52;8.52;;;;;;;0.93;100.00;97524.13;4202321;28;20748;-49
2022/12/10 01:19:06;;;;;;;9.27;8.38;;;;;;;0.94;100.00;97525.75;4206181;28;20636;-49
2022/12/10 01:21:12;;;;;;;9.23;8.27;;;;;;;0.98;100.00;97529.69;4205749;28;20410;-49
2022/12/10 01:23:13;;;;;;;10.32;9.43;;;;;;;1.02;100.00;97538.97;4206825;28;20210;-49
2022/12/10 01:25:15;;;;;;;8.68;7.90;;;;;;;0.96;100.00;97537.16;4202719;28;20298;-49
2022/12/10 01:27:17;;;;;;;10.73;8.85;;;;;;;0.98;100.00;97547.69;4198222;28;20316;-50
2022/12/10 01:29:19;;;;;;;8.68;7.68;;;;;;;0.94;100.00;97541.91;4185359;28;20757;-50
2022/12/10 01:31:24;;;;;;;9.30;8.18;;;;;;;0.94;100.00;97543.81;4202170;28;20213;-49
2022/12/10 01:33:26;;;;;;;9.88;8.88;;;;;;;0.93;100.00;97545.66;4215946;27;20282;-49
2022/12/10 01:35:27;;;;;;;9.30;8.50;;;;;;;0.95;100.00;97548.94;4199392;28;20211;-49
2022/12/10 01:37:29;;;;;;;8.63;7.78;;;;;;;0.94;100.00;97551.88;4206398;28;20226;-50
2022/12/10 01:39:31;;;;;;;10.48;8.23;;;;;;;0.93;100.00;97551.03;4199486;28;20206;-49
2022/12/10 01:41:37;;;;;;;9.30;8.18;;;;;;;0.92;100.00;97545.88;4218864;27;20203;-49
2022/12/10 01:44:12;;;;;;;8.60;7.80;;;;;;;0.88;100.00;97548.16;4198283;28;20214;-50
2022/12/10 01:46:14;;;;;;;9.45;8.35;;;;;;;0.90;100.00;97540.72;4145351;28;20250;-49
2022/12/10 01:48:15;;;;;;;9.43;8.30;;;;;;;0.90;100.00;97546.09;4189337;28;20211;-49
2022/12/10 01:50:17;;;;;;;10.35;9.32;;;;;;;0.92;100.00;97552.09;4201160;28;20274;-49
2022/12/10 01:52:19;;;;;;;12.57;8.20;;;;;;;1.01;100.00;97548.09;4196509;28;20282;-48
2022/12/10 01:54:24;;;;;;;9.05;8.15;;;;;;;0.99;100.00;97546.66;4201604;28;20207;-48
2022/12/10 01:56:26;;;;;;;9.13;7.85;;;;;;;0.94;100.00;97541.13;4190733;28;20276;-49
2022/12/10 01:58:28;;;;;;;8.98;8.13;;;;;;;0.93;100.00;97545.66;4203999;28;20204;-49
2022/12/10 02:00:32;;;;;;;9.55;8.65;;;;;;;1.03;100.00;97555.97;4197243;28;20518;-49
2022/12/10 02:02:43;;;;;;;8.27;7.53;;;;;;;1.07;100.00;97551.81;4213204;28;20209;-50
2022/12/10 02:04:59;;;;;;;8.98;8.18;;;;;;;0.94;100.00;97563.47;4200885;28;20207;-49
2022/12/10 02:07:09;;;;;;;9.10;8.25;;;;;;;0.95;100.00;97559.72;4216720;28;20234;-49
2022/12/10 02:09:14;;;;;;;9.13;8.40;;;;;;;1.03;100.00;97554.13;4200491;28;20250;-49
2022/12/10 02:11:29;;;;;;;9.32;8.13;;;;;;;0.96;100.00;97555.19;4216539;27;20210;-50
2022/12/10 02:13:43;;;;;;;8.73;7.93;;;;;;;0.96;100.00;97558.72;4197921;28;20687;-49
2022/12/10 02:16:09;;;;;;;13.07;7.82;;;;;;;0.97;100.00;97562.22;4190570;28;20588;-48
2022/12/10 02:18:16;;;;;;;7.95;7.00;;;;;;;0.84;100.00;97565.78;4202867;28;20632;-50
2022/12/10 02:20:20;;;;;;;8.95;8.00;;;;;;;0.87;100.00;97564.53;4200055;28;20233;-49
2022/12/10 02:22:24;;;;;;;10.02;9.05;;;;;;;0.93;100.00;97561.81;4203310;28;20861;-50
2022/12/10 02:24:29;;;;;;;9.70;8.70;;;;;;;0.85;100.00;97564.75;4197611;28;20199;-49
2022/12/10 02:26:56;;;;;;;8.68;7.93;;;;;;;0.86;100.00;97561.00;4212259;28;20253;-50
2022/12/10 02:29:24;;;;;;;8.77;8.05;;;;;;;0.84;100.00;97556.88;4201749;28;20248;-49
2022/12/10 02:31:29;;;;;;;7.47;6.72;;;;;;;0.97;100.00;97546.91;4181615;28;20203;-51
2022/12/10 02:33:33;;;;;;;9.18;8.27;;;;;;;0.90;100.00;97554.19;4213059;28;20667;-49
2022/12/10 02:35:38;;;;;;;9.38;7.57;;;;;;;0.85;100.00;97559.38;4202622;28;20240;-49
2022/12/10 02:38:09;;;;;;;9.70;8.23;;;;;;;0.86;100.00;97554.78;4199931;28;20210;-49
2022/12/10 02:40:22;;;;;;;9.18;8.38;;;;;;;0.92;100.00;97556.63;4218282;28;20677;-49
2022/12/10 02:42:25;;;;;;;7.70;7.00;;;;;;;0.86;100.00;97555.63;4216350;28;21145;-50
2022/12/10 02:44:28;;;;;;;8.48;7.60;;;;;;;0.86;100.00;97555.63;4202163;28;20365;-49
2022/12/10 02:46:32;;;;;;;9.15;8.15;;;;;;;0.88;100.00;97550.03;4201192;28;20741;-49
2022/12/10 02:48:35;;;;;;;8.77;7.93;;;;;;;0.88;100.00;97550.03;4199099;28;20800;-50
2022/12/10 02:50:37;;;;;;;9.52;8.65;;;;;;;0.97;100.00;97546.91;4201309;28;20253;-50
2022/12/10 02:52:39;;;;;;;9.13;8.20;;;;;;;0.80;100.00;97540.31;4203067;28;20731;-49
2022/12/10 02:54:47;;;;;;;9.27;8.45;;;;;;;0.90;100.00;97546.09;4204274;28;20482;-49
2022/12/10 02:56:54;;;;;;;9.50;7.22;;;;;;;0.81;100.00;97536.59;4199320;28;20314;-49
2022/12/10 02:59:16;;;;;;;7.78;7.18;;;;;;;0.86;100.00;97538.63;4204750;28;20210;-50
2022/12/10 03:01:36;;;;;;;9.27;8.40;;;;;;;0.78;100.00;97537.03;4198621;28;20603;-49
2022/12/10 03:03:56;;;;;;;8.70;7.68;;;;;;;0.82;100.00;97538.22;4215917;28;20587;-49
2022/12/10 03:06:18;;;;;;;8.63;7.82;;;;;;;0.80;100.00;97540.31;4187276;28;20207;-48
2022/12/10 03:08:59;;;;;;;8.75;7.85;;;;;;;0.84;100.00;97536.19;4187712;28;20705;-49
2022/12/10 03:11:07;;;;;;;8.40;7.60;;;;;;;0.84;100.00;97538.88;4206762;28;20203;-49
2022/12/10 03:13:11;;;;;;;8.75;7.93;;;;;;;0.83;100.00;97536.38;4217609;28;20211;-49
2022/12/10 03:15:14;;;;;;;12.48;8.82;;;;;;;0.79;100.00;97541.38;4198961;28;20552;-49
2022/12/10 03:17:16;;;;;;;9.20;8.25;;;;;;;0.83;100.00;97533.69;4200145;28;21135;-49
2022/12/10 03:19:21;;;;;;;8.52;7.65;;;;;;;0.87;100.00;97535.75;4207583;28;20724;-49
2022/12/10 03:21:24;;;;;;;8.80;7.80;;;;;;;0.82;100.00;97538.22;4206313;28;20245;-49
2022/12/10 03:23:26;;;;;;;9.77;8.85;;;;;;;0.76;100.00;97538.28;4221747;28;20690;-49
2022/12/10 03:25:30;;;;;;;7.53;6.82;;;;;;;0.82;100.00;97540.94;4208589;28;20306;-49
2022/12/10 03:27:32;;;;;;;8.52;7.70;;;;;;;0.70;100.00;97537.28;4204374;28;20235;-49
2022/12/10 03:29:47;;;;;;;7.53;6.75;;;;;;;0.76;100.00;97533.72;4207115;28;20589;-49
2022/12/10 03:31:50;;;;;;;8.85;8.05;;;;;;;0.82;100.00;97543.63;4205846;28;20207;-49
2022/12/10 03:33:54;;;;;;;8.65;7.85;;;;;;;0.86;100.00;97546.72;4202825;28;20361;-50
2022/12/10 03:35:56;;;;;;;13.55;8.07;;;;;;;0.74;100.00;97551.94;4189259;28;20203;-49
2022/12/10 03:37:58;;;;;;;9.77;8.38;;;;;;;0.72;100.00;97548.63;4217141;28;20302;-49
2022/12/10 03:40:00;;;;;;;8.43;7.55;;;;;;;0.65;100.00;97542.47;4201042;28;20278;-48
2022/12/10 03:42:04;;;;;;;10.20;9.20;;;;;;;0.53;100.00;97538.75;4181207;28;20651;-49
2022/12/10 03:44:05;;;;;;;8.82;8.00;;;;;;;0.64;100.00;97551.56;4216474;27;20649;-50
2022/12/10 03:46:07;;;;;;;8.70;7.90;;;;;;;0.67;100.00;97551.13;4187009;28;20245;-50
2022/12/10 03:48:09;;;;;;;9.15;8.05;;;;;;;0.63;100.00;97546.38;4186085;28;20247;-49
2022/12/10 03:50:11;;;;;;;10.02;8.70;;;;;;;0.67;100.00;97545.75;4220755;27;20257;-49
2022/12/10 03:52:13;;;;;;;9.43;6.78;;;;;;;0.71;100.00;97546.16;4201261;28;20259;-49
2022/12/10 03:54:15;;;;;;;8.98;8.18;;;;;;;0.74;100.00;97549.25;4215581;27;20210;-48
2022/12/10 03:56:18;;;;;;;7.13;6.43;;;;;;;0.70;100.00;97547.19;4205223;28;20257;-49
2022/12/10 03:58:20;;;;;;;8.27;7.57;;;;;;;0.75;100.00;97552.78;4209703;28;20230;-48
2022/12/10 04:00:21;;;;;;;8.07;7.38;;;;;;;0.81;100.00;97558.13;4218815;27;20209;-49
2022/12/10 04:02:23;;;;;;;9.65;8.65;;;;;;;0.74;100.00;97556.50;4216812;27;20253;-49
2022/12/10 04:04:25;;;;;;;7.88;7.18;;;;;;;0.75;100.00;97558.97;4201311;28;20211;-49
2022/12/10 04:06:27;;;;;;;9.65;8.85;;;;;;;0.70;100.00;97558.81;4217431;27;20279;-49
2022/12/10 04:08:29;;;;;;;8.80;7.15;;;;;;;0.66;100.00;97564.78;4199064;28;21143;-50
2022/12/10 04:10:35;;;;;;;9.30;8.40;;;;;;;0.62;100.00;97563.59;4199747;28;20273;-49
2022/12/10 04:12:37;;;;;;;9.05;7.70;;;;;;;0.54;100.00;97563.81;4202864;28;20260;-49
2022/12/10 04:16:59;;;;;;;9.40;7.90;;;;;;;0.53;100.00;97568.34;4205988;27;20253;-49
2022/12/10 04:19:04;;;;;;;8.88;7.70;;;;;;;0.51;100.00;97559.69;4201215;28;20265;-50
2022/12/10 04:28:07;;;;;;;7.38;6.68;;;;;;;0.69;100.00;97572.47;4217733;28;20233;-49
2022/12/10 04:30:12;;;;;;;8.45;7.43;;;;;;;0.74;100.00;97575.34;4197705;28;20226;-49
2022/12/10 04:32:14;;;;;;;7.03;6.43;;;;;;;0.77;100.00;97581.13;4201568;28;20237;-49
2022/12/10 04:34:16;;;;;;;7.43;6.82;;;;;;;0.65;100.00;97572.06;4206607;28;20975;-51
2022/12/10 04:36:18;;;;;;;8.00;7.07;;;;;;;0.65;100.00;97572.06;4183240;28;20311;-48
2022/12/10 04:38:20;;;;;;;7.35;6.28;;;;;;;0.72;100.00;97577.41;4204277;28;20256;-49
2022/12/10 04:40:22;;;;;;;8.00;7.25;;;;;;;0.78;100.00;97585.47;4199188;28;20224;-49
2022/12/10 04:42:23;;;;;;;7.65;6.88;;;;;;;0.67;100.00;97578.03;4196880;28;20658;-49
2022/12/10 04:44:25;;;;;;;7.35;6.63;;;;;;;0.79;100.00;97580.91;4203803;28;20240;-50
2022/12/10 04:46:27;;;;;;;9.52;8.20;;;;;;;0.78;100.00;97590.88;4188872;28;20287;-49
2022/12/10 04:48:29;;;;;;;8.95;8.07;;;;;;;0.77;100.00;97583.84;4205232;28;20983;-49
2022/12/10 04:50:31;;;;;;;7.32;6.63;;;;;;;0.86;100.00;97587.94;4200693;28;20218;-49
2022/12/10 04:52:33;;;;;;;8.65;7.70;;;;;;;0.77;100.00;97589.22;4189725;28;20246;-49
2022/12/10 04:54:35;;;;;;;7.38;6.55;;;;;;;0.91;100.00;97585.44;4216304;28;20202;-50
2022/12/10 04:56:40;;;;;;;9.38;8.60;;;;;;;0.73;100.00;97579.91;4201197;28;20227;-50
2022/12/10 04:58:42;;;;;;;10.05;9.13;;;;;;;0.68;100.00;97590.47;4202123;28;20215;-49
2022/12/10 05:00:44;;;;;;;11.93;7.82;;;;;;;0.63;100.00;97590.28;4203508;28;20237;-49
2022/12/10 05:02:48;;;;;;;7.63;6.93;;;;;;;0.70;100.00;97599.19;4188679;28;20242;-49
2022/12/10 05:04:50;;;;;;;7.20;6.38;;;;;;;0.70;100.00;97599.19;4202427;28;20229;-49
2022/12/10 05:06:52;;;;;;;8.43;7.60;;;;;;;0.63;100.00;97592.97;4196680;28;20251;-49
2022/12/10 05:08:54;;;;;;;9.52;8.73;;;;;;;0.54;100.00;97599.59;4199652;28;20634;-49
2022/12/10 05:11:01;;;;;;;8.95;8.05;;;;;;;0.53;100.00;97597.97;4199354;28;20227;-50
2022/12/10 05:13:03;;;;;;;9.60;8.68;;;;;;;0.48;100.00;97605.81;4198910;28;20202;-49
2022/12/10 05:15:06;;;;;;;7.75;6.70;;;;;;;0.59;100.00;97602.50;4197464;28;20241;-49
2022/12/10 05:17:08;;;;;;;10.20;9.23;;;;;;;0.50;100.00;97609.16;4198816;28;20259;-49
2022/12/10 05:19:10;;;;;;;8.25;7.40;;;;;;;0.46;100.00;97602.53;4188477;28;20239;-47
2022/12/10 05:21:15;;;;;;;12.32;10.73;;;;;;;0.46;100.00;97609.75;4217274;28;20202;-47
2022/12/10 05:23:38;;;;;;;8.55;7.65;;;;;;;0.52;100.00;97609.75;4216071;28;20209;-47
2022/12/10 05:25:52;;;;;;;9.65;8.63;;;;;;;0.56;100.00;97612.84;4215699;27;20241;-49
2022/12/10 05:27:54;;;;;;;8.38;7.60;;;;;;;0.59;100.00;97607.88;4188028;28;20214;-49
2022/12/10 05:29:56;;;;;;;11.23;10.20;;;;;;;0.34;100.00;97606.88;4187819;28;20216;-51
2022/12/10 05:31:58;;;;;;;10.40;9.52;;;;;;;0.36;100.00;97607.47;4203602;28;20198;-47
2022/12/10 05:34:00;;;;;;;9.73;8.82;;;;;;;0.44;100.00;97614.53;4195335;28;20219;-47
2022/12/10 05:36:03;;;;;;;9.27;8.48;;;;;;;0.21;100.00;97614.94;4199456;28;20227;-48
2022/12/10 05:38:05;;;;;;;9.18;8.35;;;;;;;0.27;100.00;97608.75;4218463;27;20584;-49
2022/12/10 05:40:08;;;;;;;8.60;7.80;;;;;;;0.24;100.00;97614.56;4213387;28;20234;-50
2022/12/10 05:42:10;;;;;;;10.25;8.80;;;;;;;0.33;100.00;97618.69;4188739;28;20316;-50
2022/12/10 05:44:12;;;;;;;11.10;9.02;;;;;;;0.33;100.00;97615.97;4198658;28;20798;-50
2022/12/10 05:46:20;;;;;;;9.27;8.40;;;;;;;0.46;100.00;97621.34;4198718;28;20311;-49
2022/12/10 05:48:23;;;;;;;8.32;7.55;;;;;;;0.48;100.00;97619.28;4215405;27;20205;-49
2022/12/10 05:50:24;;;;;;;9.68;8.88;;;;;;;0.57;100.00;97626.13;4196681;28;20702;-50
2022/12/10 05:52:26;;;;;;;9.48;8.50;;;;;;;0.60;100.00;97620.28;4197737;28;20690;-48
2022/12/10 05:54:28;;;;;;;10.57;9.50;;;;;;;0.61;100.00;97627.31;4179802;28;20260;-49
2022/12/10 05:56:30;;;;;;;10.52;9.52;;;;;;;0.57;100.00;97631.50;4215546;27;20230;-47
2022/12/10 05:58:33;;;;;;;9.70;8.80;;;;;;;0.47;100.00;97631.06;4198645;28;20213;-47
2022/12/10 06:00:35;;;;;;;9.38;8.38;;;;;;;0.58;100.00;97635.00;4200461;28;20230;-50
2022/12/10 06:02:37;;;;;;;8.95;8.15;;;;;;;0.61;100.00;97632.72;4200840;28;20211;-49
2022/12/10 06:04:38;;;;;;;10.23;8.10;;;;;;;0.63;100.00;97630.66;4213377;28;20214;-51
2022/12/10 06:06:40;;;;;;;9.88;8.88;;;;;;;0.42;100.00;97641.63;4198856;28;20309;-49
2022/12/10 06:08:42;;;;;;;9.63;8.82;;;;;;;0.37;100.00;97629.84;4198592;28;20257;-50
2022/12/10 06:10:44;;;;;;;7.75;7.07;;;;;;;0.37;100.00;97641.44;4198998;28;20229;-50
2022/12/10 06:12:46;;;;;;;8.82;8.02;;;;;;;0.39;100.00;97644.75;4216080;28;20652;-50
2022/12/10 06:14:48;;;;;;;14.10;9.15;;;;;;;0.52;100.00;97642.03;4197842;28;20792;-49
2022/12/10 06:16:49;;;;;;;8.70;7.75;;;;;;;0.56;100.00;97645.97;4202781;28;20756;-50
2022/12/10 06:18:52;;;;;;;10.70;9.60;;;;;;;0.57;100.00;97650.34;4203873;28;20229;-49
2022/12/10 06:20:54;;;;;;;8.57;7.78;;;;;;;0.40;100.00;97650.97;4214175;28;20226;-50
2022/12/10 06:22:55;;;;;;;10.20;9.33;;;;;;;0.42;100.00;97649.69;4197226;28;20217;-49
2022/12/10 06:24:57;;;;;;;16.20;8.45;;;;;;;0.27;100.00;97654.47;4186668;28;20238;-49
2022/12/10 06:26:59;;;;;;;11.07;9.90;;;;;;;0.15;100.00;97656.13;4215834;27;20254;-49
2022/12/10 06:29:01;;;;;;;8.87;8.13;;;;;;;0.20;100.00;97660.91;4192727;28;20207;-49
2022/12/10 06:31:03;;;;;;;9.90;8.90;;;;;;;0.26;100.00;97666.25;4187463;28;20254;-50
2022/12/10 06:33:05;;;;;;;12.87;11.63;;;;;;;0.30;100.00;97672.91;4198321;28;20264;-50
2022/12/10 06:35:07;;;;;;;10.70;9.70;;;;;;;0.41;100.00;97666.88;4200033;28;20741;-49
2022/12/10 06:37:09;;;;;;;11.48;9.10;;;;;;;0.42;100.00;97657.78;4201813;28;20277;-49
2022/12/10 06:39:10;;;;;;;8.85;8.05;;;;;;;0.48;100.00;97658.81;4202844;28;20230;-49
2022/12/10 06:41:16;;;;;;;9.43;8.53;;;;;;;0.46;100.00;97672.47;4201122;28;20789;-49
2022/12/10 06:43:18;;;;;;;9.02;8.15;;;;;;;0.52;100.00;97677.03;4200912;28;20214;-49
2022/12/10 06:45:20;;;;;;;9.25;8.45;;;;;;;0.57;100.00;97673.72;4195127;28;20207;-49
2022/12/10 06:47:22;;;;;;;9.23;8.32;;;;;;;0.57;100.00;97674.56;4199859;28;20257;-48
2022/12/10 06:49:24;;;;;;;11.30;8.57;;;;;;;0.58;100.00;97681.59;4194878;28;20235;-49
2022/12/10 06:51:25;;;;;;;8.57;7.28;;;;;;;0.48;100.00;97681.16;4196490;28;20224;-48
2022/12/10 06:53:27;;;;;;;10.52;9.45;;;;;;;0.51;100.00;97683.44;4197221;28;20308;-49
2022/12/10 06:55:29;;;;;;;9.43;8.55;;;;;;;0.52;100.00;97690.47;4217857;27;20312;-50
2022/12/10 06:57:31;;;;;;;8.95;8.07;;;;;;;0.55;100.00;97692.75;4215055;27;20249;-49
2022/12/10 06:59:33;;;;;;;9.20;8.40;;;;;;;0.56;100.00;97689.00;4204627;28;20732;-49
2022/12/10 07:01:38;;;;;;;10.07;9.07;;;;;;;0.58;100.00;97697.72;4202203;28;20195;-49
2022/12/10 07:03:41;;;;;;;9.18;8.27;;;;;;;0.43;100.00;97694.44;4207852;28;20253;-49
2022/12/10 07:05:42;;;;;;;9.07;8.23;;;;;;;0.49;100.00;97698.94;4203422;28;20241;-48
2022/12/10 07:07:44;;;;;;;10.50;9.68;;;;;;;0.56;100.00;97699.78;4192539;28;20234;-49
2022/12/10 07:09:46;;;;;;;8.98;8.10;;;;;;;0.51;100.00;97702.28;4218977;27;20596;-49
2022/12/10 07:11:48;;;;;;;9.40;8.55;;;;;;;0.56;100.00;97704.34;4219065;28;20222;-46
2022/12/10 07:13:50;;;;;;;8.15;7.55;;;;;;;0.59;100.00;97702.06;4185984;28;20203;-47
2022/12/10 07:15:52;;;;;;;9.63;7.97;;;;;;;0.53;100.00;97707.44;4216964;28;20242;-47
2022/12/10 07:17:54;;;;;;;7.90;7.18;;;;;;;0.57;100.00;97709.53;4192765;28;20624;-48
2022/12/10 07:19:55;;;;;;;8.90;8.00;;;;;;;0.64;100.00;97710.34;4217162;27;20237;-46
2022/12/10 07:21:57;;;;;;;8.48;7.78;;;;;;;0.59;100.00;97709.31;4205360;28;20662;-48
2022/12/10 07:24:14;;;;;;;8.57;7.75;;;;;;;0.56;100.00;97710.53;4198228;28;20310;-47
2022/12/10 07:26:19;;;;;;;9.07;8.18;;;;;;;0.52;100.00;97716.56;4201363;28;20627;-50
2022/12/10 07:28:21;;;;;;;9.00;8.20;;;;;;;0.52;100.00;97709.31;4199438;28;20231;-50
2022/12/10 07:30:23;;;;;;;8.27;7.45;;;;;;;0.52;100.00;97717.38;4218134;27;20251;-47
2022/12/10 07:32:27;;;;;;;10.13;9.13;;;;;;;0.60;100.00;97717.19;4198989;28;20222;-50
2022/12/10 07:34:29;;;;;;;9.10;8.27;;;;;;;0.55;100.00;97713.47;4200270;28;20221;-48
2022/12/10 07:36:30;;;;;;;9.77;8.88;;;;;;;0.46;100.00;97715.53;4206759;28;20234;-47
2022/12/10 07:38:32;;;;;;;9.07;8.27;;;;;;;0.30;100.00;97715.94;4202169;28;20632;-49
2022/12/10 07:40:34;;;;;;;8.35;7.53;;;;;;;0.44;100.00;97722.13;4201069;28;20271;-49
2022/12/10 07:42:36;;;;;;;8.80;8.00;;;;;;;0.58;100.00;97735.41;4203860;28;20218;-47
2022/12/10 07:44:38;;;;;;;14.80;9.07;;;;;;;0.24;100.00;97732.06;4182254;28;20216;-48
2022/12/10 07:46:40;;;;;;;7.88;7.18;;;;;;;0.31;100.00;97741.81;4216326;27;20694;-49
2022/12/10 07:48:43;;;;;;;12.18;10.90;;;;;;;0.24;100.00;97740.97;4199963;28;20536;-48
2022/12/10 07:50:44;;;;;;;13.15;10.88;;;;;;;0.28;100.00;97739.50;4217309;27;20309;-48
2022/12/10 07:52:46;;;;;;;11.95;8.48;;;;;;;0.44;100.00;97744.50;4200318;28;20238;-48
2022/12/10 07:54:48;;;;;;;10.48;9.48;;;;;;;0.23;100.00;97742.00;4201508;28;20207;-48
2022/12/10 07:56:50;;;;;;;8.40;7.60;;;;;;;0.42;100.00;97746.56;4216994;28;20296;-48
2022/12/10 07:58:52;;;;;;;14.60;8.70;;;;;;;0.39;100.00;97740.75;4205537;28;20256;-49
2022/12/10 08:00:54;;;;;;;8.27;7.55;;;;;;;0.48;100.00;97743.03;4205148;28;20279;-47
2022/12/10 08:02:56;;;;;;;7.65;6.97;;;;;;;0.53;100.00;97747.81;4220750;27;20198;-47
2022/12/10 08:04:58;;;;;;;9.45;8.55;;;;;;;0.49;100.00;97743.88;4215064;27;20245;-47
2022/12/10 08:07:00;;;;;;;10.45;8.15;;;;;;;0.43;100.00;97753.63;4216322;27;20222;-48
2022/12/10 08:09:02;;;;;;;8.57;7.72;;;;;;;0.53;100.00;97754.03;4219036;27;20206;-47
2022/12/10 08:11:05;;;;;;;8.07;7.38;;;;;;;0.47;100.00;97754.84;4202345;28;20771;-50
2022/12/10 08:13:06;;;;;;;8.73;7.93;;;;;;;0.50;100.00;97756.28;4200435;28;20255;-48
2022/12/10 08:15:09;;;;;;;10.93;8.63;;;;;;;0.45;100.00;97748.84;4212632;27;20214;-49
2022/12/10 08:17:11;;;;;;;9.48;8.57;;;;;;;0.59;100.00;97752.34;4220659;27;20225;-48
2022/12/10 08:19:12;;;;;;;8.73;7.93;;;;;;;0.56;100.00;97758.97;4215197;27;20326;-49
2022/12/10 08:21:24;;;;;;;6.90;6.28;;;;;;;0.38;100.00;97764.16;4217418;27;20198;-48
2022/12/10 08:23:26;;;;;;;7.65;6.97;;;;;;;0.43;100.00;97769.75;4215475;28;20210;-48
2022/12/10 08:25:27;;;;;;;7.25;6.63;;;;;;;0.43;100.00;97766.22;4201875;28;20207;-49
2022/12/10 08:27:29;;;;;;;7.68;6.68;;;;;;;0.53;100.00;97772.84;4207313;28;20989;-48
2022/12/10 08:29:31;;;;;;;7.33;6.73;;;;;;;0.59;100.00;97768.50;4218935;28;20206;-48
2022/12/10 08:31:33;;;;;;;9.68;6.57;;;;;;;0.64;100.00;97777.63;4199174;28;20269;-48
2022/12/10 08:33:39;;;;;;;9.35;6.90;;;;;;;0.63;100.00;97785.91;4201920;28;20241;-48
2022/12/10 08:35:41;;;;;;;8.13;7.43;;;;;;;0.69;100.00;97785.91;4217505;28;20267;-48
2022/12/10 08:37:42;;;;;;;7.40;6.70;;;;;;;0.73;100.00;97781.78;4198918;28;20238;-48
2022/12/10 08:39:44;;;;;;;7.03;6.32;;;;;;;0.70;100.00;97782.19;4217225;27;20210;-48
2022/12/10 08:41:46;;;;;;;7.57;6.93;;;;;;;0.59;100.00;97773.88;4218005;27;20280;-47
2022/12/10 08:43:48;;;;;;;8.90;8.02;;;;;;;0.63;100.00;97786.75;4197156;28;20960;-48
2022/12/10 08:45:50;;;;;;;8.02;7.30;;;;;;;0.68;100.00;97789.63;4205023;28;20602;-48
2022/12/10 08:47:52;;;;;;;7.65;6.95;;;;;;;0.57;100.00;97787.56;4217926;27;20642;-48
2022/12/10 08:49:54;;;;;;;12.82;7.75;;;;;;;0.61;100.00;97788.00;4202165;28;20256;-48
2022/12/10 08:51:56;;;;;;;8.70;7.85;;;;;;;0.71;100.00;97789.25;4202356;28;20268;-48
2022/12/10 08:53:58;;;;;;;9.70;8.80;;;;;;;0.75;100.00;97790.47;4213505;27;20622;-49
2022/12/10 08:55:59;;;;;;;8.43;7.63;;;;;;;0.69;100.00;97790.47;4206275;28;20207;-48
2022/12/10 08:58:01;;;;;;;7.85;7.15;;;;;;;0.81;100.00;97797.72;4204194;28;20213;-48
2022/12/10 09:00:04;;;;;;;6.85;6.18;;;;;;;0.77;100.00;97798.34;4218568;27;20628;-48
2022/12/10 09:02:08;;;;;;;7.85;6.88;;;;;;;0.75;100.00;97789.66;4215736;27;20207;-48
2022/12/10 09:04:12;;;;;;;7.32;6.60;;;;;;;0.73;100.00;97792.53;4187106;28;20211;-49
2022/12/10 09:06:16;;;;;;;7.10;6.47;;;;;;;0.75;100.00;97795.03;4206340;28;20230;-49
2022/12/10 09:08:18;;;;;;;7.63;6.93;;;;;;;0.67;100.00;97798.75;4188897;28;20200;-48
2022/12/10 09:10:21;;;;;;;5.75;5.25;;;;;;;0.73;100.00;97797.94;4195728;28;20292;-49
2022/12/10 09:12:23;;;;;;;7.85;7.05;;;;;;;0.78;100.00;97790.06;4201758;28;20563;-48
2022/12/10 09:14:25;;;;;;;7.90;7.20;;;;;;;0.74;100.00;97796.88;4197337;28;20293;-48
2022/12/10 09:16:32;;;;;;;7.32;6.72;;;;;;;0.56;100.00;97796.66;4188344;28;20265;-49
2022/12/10 09:18:35;;;;;;;6.00;5.50;;;;;;;0.61;100.00;97794.19;4198430;28;20205;-50
2022/12/10 09:20:37;;;;;;;6.03;5.50;;;;;;;0.47;100.00;97797.91;4214827;27;20214;-48
2022/12/10 09:22:38;;;;;;;7.00;6.40;;;;;;;0.65;100.00;97798.13;4212323;28;20263;-49
2022/12/10 09:24:40;;;;;;;6.13;5.63;;;;;;;0.67;100.00;97798.75;4216039;27;20218;-49
2022/12/10 09:26:43;;;;;;;6.30;5.80;;;;;;;0.79;100.00;97802.50;4187164;28;20223;-49
2022/12/10 09:28:45;;;;;;;7.78;6.97;;;;;;;0.83;100.00;97794.81;4200517;28;20328;-49
2022/12/10 09:30:56;;;;;;;8.43;7.63;;;;;;;0.67;100.00;97801.44;4198745;28;20627;-48
2022/12/10 09:33:03;;;;;;;7.07;6.47;;;;;;;0.78;100.00;97795.44;4213108;27;20198;-48
2022/12/10 09:35:07;;;;;;;6.15;5.55;;;;;;;0.80;100.00;97804.16;4196253;28;20566;-49
2022/12/10 09:37:13;;;;;;;6.85;6.20;;;;;;;0.87;100.00;97802.28;4213670;28;20762;-49
2022/12/10 09:39:15;;;;;;;8.68;7.95;;;;;;;0.98;100.00;97801.66;4197185;28;20245;-49
2022/12/10 09:41:54;;;;;;;7.43;6.60;;;;;;;0.93;100.00;97804.16;4196808;28;20298;-49
2022/12/10 09:44:20;;;;;;;8.57;6.60;;;;;;;0.75;100.00;97812.00;4200974;28;20233;-50
2022/12/10 09:46:25;;;;;;;6.82;6.22;;;;;;;0.95;100.00;97807.44;4213648;28;20230;-48
2022/12/10 09:48:59;;;;;;;5.43;4.93;;;;;;;0.99;100.00;97805.16;4218355;27;20237;-51
2022/12/10 09:51:19;;;;;;;5.95;5.45;;;;;;;1.01;100.00;97808.50;4143730;28;20679;-48
2022/12/10 09:53:21;;;;;;;6.85;5.85;;;;;;;0.97;100.00;97810.78;4193109;28;20214;-48